Time;durP1;ratioP1;P1;durP2;ratioP2;P2;SDS_P1;SDS_P2;PMS_P1;PMS_P2;Temp;Humidity;BMP_temperature;BMP_pressure;BME280_temperature;BME280_humidity;BME280_pressure;Samples;Min_cycle;Max_cycle;Signal;HPM_P1;HPM_P2
2022/01/29 00:02:20;;;;;;;2.88;1.90;;;9.50;99.90;;;;;;5045183;28;20049;-77
2022/01/29 00:04:49;;;;;;;2.72;1.80;;;9.50;99.90;;;;;;5043129;28;20064;-78
2022/01/29 00:07:17;;;;;;;2.95;2.08;;;9.50;99.90;;;;;;5046684;28;20044;-76
2022/01/29 00:09:47;;;;;;;2.90;1.90;;;9.60;99.90;;;;;;5047382;28;20049;-78
2022/01/29 00:12:15;;;;;;;2.85;1.92;;;9.60;99.90;;;;;;5049934;28;20064;-76
2022/01/29 00:14:44;;;;;;;2.83;1.75;;;9.60;99.90;;;;;;5046144;28;20057;-76
2022/01/29 00:17:13;;;;;;;3.45;1.80;;;9.70;99.90;;;;;;5043089;28;20163;-78
2022/01/29 00:19:41;;;;;;;2.92;1.80;;;9.70;99.90;;;;;;5045901;28;20056;-76
2022/01/29 00:22:09;;;;;;;4.63;1.90;;;9.70;99.90;;;;;;5046368;28;20049;-76
2022/01/29 00:24:37;;;;;;;3.67;1.83;;;9.70;99.90;;;;;;5046004;28;20401;-76
2022/01/29 00:27:09;;;;;;;3.42;2.00;;;9.70;99.90;;;;;;5041102;28;20053;-77
2022/01/29 00:29:39;;;;;;;3.10;2.08;;;9.70;99.90;;;;;;5045063;28;20063;-76
2022/01/29 00:32:08;;;;;;;5.40;2.00;;;9.80;99.90;;;;;;5047752;28;20064;-77
2022/01/29 00:34:37;;;;;;;4.47;1.70;;;9.80;99.90;;;;;;5048115;28;20382;-77
2022/01/29 00:37:06;;;;;;;2.50;1.73;;;9.80;99.90;;;;;;5047550;28;20064;-77
2022/01/29 00:39:34;;;;;;;3.08;1.73;;;9.80;99.90;;;;;;5047846;28;20041;-77
2022/01/29 00:42:03;;;;;;;3.42;1.42;;;9.80;99.90;;;;;;5028939;28;20072;-77
2022/01/29 00:44:46;;;;;;;2.63;1.40;;;9.90;99.90;;;;;;5049207;28;20041;-77
2022/01/29 00:47:14;;;;;;;1.92;1.48;;;9.90;99.90;;;;;;5046815;28;20135;-77
2022/01/29 00:49:43;;;;;;;5.43;1.60;;;9.90;99.90;;;;;;5030787;28;20056;-76
2022/01/29 00:52:11;;;;;;;2.72;1.38;;;9.90;99.90;;;;;;5049195;28;20058;-76
2022/01/29 00:54:39;;;;;;;3.30;1.70;;;9.90;99.90;;;;;;5047955;28;20046;-77
2022/01/29 00:57:07;;;;;;;3.20;1.35;;;9.90;99.90;;;;;;5047866;28;20049;-76
2022/01/29 00:59:35;;;;;;;3.08;1.55;;;9.90;99.90;;;;;;5047386;28;20599;-76
2022/01/29 01:02:04;;;;;;;3.35;1.42;;;9.90;99.90;;;;;;5047119;28;20049;-77
2022/01/29 01:04:32;;;;;;;3.63;1.17;;;10.00;99.90;;;;;;5049092;28;20061;-77
2022/01/29 01:07:00;;;;;;;4.05;1.20;;;10.00;99.90;;;;;;5047497;28;20036;-77
2022/01/29 01:09:28;;;;;;;2.92;1.17;;;10.00;99.90;;;;;;5045822;28;20083;-77
2022/01/29 01:11:56;;;;;;;;;;;10.10;99.90;;;;;;5048966;28;20044;-79
2022/01/29 01:14:24;;;;;;;2.92;1.00;;;10.10;99.90;;;;;;5046931;28;19932;-77
2022/01/29 01:16:52;;;;;;;2.95;1.10;;;10.10;99.90;;;;;;5042675;28;20756;-79
2022/01/29 01:19:25;;;;;;;1.23;0.88;;;10.10;99.90;;;;;;5048344;28;20057;-77
2022/01/29 01:21:57;;;;;;;2.50;1.08;;;10.20;99.90;;;;;;5062322;28;20041;-77
2022/01/29 01:24:25;;;;;;;3.40;0.98;;;10.20;99.90;;;;;;5047479;28;20056;-77
2022/01/29 01:26:53;;;;;;;1.77;1.00;;;10.20;99.90;;;;;;5048080;28;20061;-78
2022/01/29 01:29:22;;;;;;;2.80;1.00;;;10.20;99.90;;;;;;5048710;28;20041;-77
2022/01/29 01:31:49;;;;;;;3.60;1.08;;;10.20;99.90;;;;;;5049286;28;20457;-77
2022/01/29 01:34:22;;;;;;;3.15;1.00;;;10.20;99.90;;;;;;5046800;28;20796;-78
2022/01/29 01:37:00;;;;;;;2.83;1.02;;;10.20;99.90;;;;;;5045868;28;20049;-77
2022/01/29 01:39:32;;;;;;;2.53;1.08;;;10.20;99.90;;;;;;5048211;28;20053;-77
2022/01/29 01:42:07;;;;;;;2.08;0.90;;;10.20;99.90;;;;;;5048042;28;20045;-76
2022/01/29 01:44:47;;;;;;;3.80;1.08;;;10.30;99.90;;;;;;5047954;28;20060;-78
2022/01/29 01:47:16;;;;;;;1.27;0.90;;;10.30;99.90;;;;;;5048686;28;20049;-76
2022/01/29 01:49:44;;;;;;;2.70;1.00;;;10.30;99.90;;;;;;5048457;28;20049;-77
2022/01/29 01:52:13;;;;;;;2.42;1.00;;;10.30;99.90;;;;;;5047062;28;20144;-77
2022/01/29 01:54:43;;;;;;;3.65;1.10;;;10.30;99.90;;;;;;5048702;28;20053;-76
2022/01/29 01:57:11;;;;;;;2.88;1.00;;;10.30;99.90;;;;;;5030229;28;20911;-79
2022/01/29 01:59:39;;;;;;;2.53;1.17;;;10.30;99.90;;;;;;5038328;28;20053;-77
2022/01/29 02:02:07;;;;;;;2.67;0.90;;;10.40;99.90;;;;;;5028096;28;20049;-78
2022/01/29 02:04:35;;;;;;;3.50;1.00;;;10.40;99.90;;;;;;5027130;28;20053;-76
2022/01/29 02:07:04;;;;;;;2.53;0.98;;;10.40;99.90;;;;;;5042017;28;20064;-78
2022/01/29 02:09:33;;;;;;;2.08;1.05;;;10.40;99.90;;;;;;5018463;28;20391;-77
2022/01/29 02:12:03;;;;;;;3.03;1.00;;;10.40;99.90;;;;;;5045708;28;20053;-75
2022/01/29 02:14:33;;;;;;;2.65;0.88;;;10.40;99.90;;;;;;5045722;28;20055;-78
2022/01/29 02:17:02;;;;;;;2.15;1.00;;;10.40;99.90;;;;;;5046635;28;20049;-77
2022/01/29 02:19:31;;;;;;;3.05;0.90;;;10.40;99.90;;;;;;5062859;28;20053;-77
2022/01/29 02:21:59;;;;;;;1.55;0.73;;;10.40;99.90;;;;;;5030725;28;20060;-77
2022/01/29 02:24:27;;;;;;;1.63;1.00;;;10.40;99.90;;;;;;5047902;28;20049;-76
2022/01/29 02:26:55;;;;;;;1.55;0.80;;;10.40;99.90;;;;;;5046975;28;20408;-76
2022/01/29 02:29:24;;;;;;;1.45;0.82;;;10.30;99.90;;;;;;5045410;28;20417;-77
2022/01/29 02:31:53;;;;;;;;;;;10.30;99.90;;;;;;5047538;28;20052;-76
2022/01/29 02:34:22;;;;;;;1.70;0.68;;;10.40;99.90;;;;;;5029739;28;19928;-77
2022/01/29 02:36:53;;;;;;;1.23;0.70;;;10.30;99.90;;;;;;5029483;28;20053;-76
2022/01/29 02:39:22;;;;;;;1.30;0.60;;;10.30;99.90;;;;;;5047194;28;20045;-76
2022/01/29 02:41:50;;;;;;;1.77;0.70;;;10.40;99.90;;;;;;5048730;28;20053;-76
2022/01/29 02:44:22;;;;;;;1.38;0.57;;;10.40;99.90;;;;;;5046082;28;20072;-77
2022/01/29 02:46:53;;;;;;;2.28;0.77;;;10.40;99.90;;;;;;5047702;28;20056;-76
2022/01/29 02:49:23;;;;;;;1.63;0.70;;;10.40;99.90;;;;;;5048780;28;20071;-76
2022/01/29 02:51:57;;;;;;;3.53;0.73;;;10.40;99.90;;;;;;5047540;28;20176;-76
2022/01/29 02:54:26;;;;;;;1.05;0.50;;;10.40;99.90;;;;;;5047755;28;20049;-78
2022/01/29 02:56:53;;;;;;;2.13;0.57;;;10.40;99.90;;;;;;5047617;28;20057;-78
2022/01/29 02:59:21;;;;;;;1.20;0.60;;;10.50;99.90;;;;;;5048616;28;20057;-77
2022/01/29 03:01:49;;;;;;;1.45;0.50;;;10.50;99.90;;;;;;5048874;28;20433;-77
2022/01/29 03:04:17;;;;;;;;;;;10.50;99.90;;;;;;5035578;28;20041;-77
2022/01/29 03:06:45;;;;;;;2.88;0.50;;;10.50;99.90;;;;;;5052187;28;20003;-77
2022/01/29 03:09:13;;;;;;;0.95;0.55;;;10.50;99.90;;;;;;5051185;28;20041;-78
2022/01/29 03:11:40;;;;;;;2.25;0.50;;;10.50;99.90;;;;;;5051281;28;20047;-77
2022/01/29 03:14:08;;;;;;;1.05;0.50;;;10.50;99.90;;;;;;5051038;28;20045;-77
2022/01/29 03:16:36;;;;;;;2.70;0.57;;;10.50;99.90;;;;;;5052462;28;20378;-77
2022/01/29 03:19:04;;;;;;;3.15;0.45;;;10.50;99.90;;;;;;5051531;28;20073;-77
2022/01/29 03:21:31;;;;;;;1.10;0.50;;;10.50;99.90;;;;;;5051734;28;20454;-76
2022/01/29 03:23:59;;;;;;;1.02;0.50;;;10.60;99.90;;;;;;5051894;28;20171;-77
2022/01/29 03:26:27;;;;;;;0.70;0.40;;;10.60;99.90;;;;;;5051824;28;20508;-76
2022/01/29 03:28:55;;;;;;;1.00;0.50;;;10.60;99.90;;;;;;5050620;28;20057;-78
2022/01/29 03:31:26;;;;;;;1.42;0.50;;;10.60;99.90;;;;;;5050835;28;20748;-77
2022/01/29 03:33:54;;;;;;;2.95;0.60;;;10.60;99.90;;;;;;5052204;28;20049;-77
2022/01/29 03:36:22;;;;;;;1.75;0.55;;;10.60;99.90;;;;;;5050589;28;20044;-78
2022/01/29 03:38:50;;;;;;;3.88;0.50;;;10.70;99.90;;;;;;5050889;28;20052;-77
2022/01/29 03:41:18;;;;;;;;;;;10.70;99.90;;;;;;5034953;28;20057;-77
2022/01/29 03:43:50;;;;;;;1.98;0.40;;;10.70;99.90;;;;;;5033304;28;19928;-77
2022/01/29 03:46:18;;;;;;;2.20;0.52;;;10.60;99.90;;;;;;5046006;28;20530;-76
2022/01/29 03:48:46;;;;;;;0.52;0.40;;;10.70;99.90;;;;;;5048927;28;20049;-76
2022/01/29 03:51:13;;;;;;;1.70;0.43;;;10.70;99.90;;;;;;5049134;28;20056;-76
2022/01/29 03:53:41;;;;;;;4.03;0.50;;;10.70;99.90;;;;;;5039724;28;20382;-77
2022/01/29 03:56:10;;;;;;;2.05;0.50;;;10.70;99.90;;;;;;5031401;28;20049;-76
2022/01/29 03:58:37;;;;;;;2.72;0.70;;;10.70;99.90;;;;;;5030328;28;20045;-76
2022/01/29 04:01:05;;;;;;;4.32;0.63;;;10.70;99.90;;;;;;5028537;28;20397;-78
2022/01/29 04:03:33;;;;;;;;;;;10.70;99.90;;;;;;5031347;28;20053;-76
2022/01/29 04:06:01;;;;;;;1.20;0.63;;;10.70;99.90;;;;;;5030330;28;19925;-76
2022/01/29 04:08:31;;;;;;;2.40;0.52;;;10.70;99.90;;;;;;5031067;28;20490;-76
2022/01/29 04:10:58;;;;;;;3.45;0.80;;;10.70;99.90;;;;;;5050642;28;20045;-77
2022/01/29 04:13:27;;;;;;;1.60;0.50;;;10.70;99.90;;;;;;5050258;28;20060;-75
2022/01/29 04:15:55;;;;;;;2.00;0.60;;;10.70;99.90;;;;;;5050083;28;20049;-77
2022/01/29 04:18:23;;;;;;;3.08;0.60;;;10.70;99.90;;;;;;5049143;28;20700;-77
2022/01/29 04:20:51;;;;;;;4.35;0.85;;;10.70;99.90;;;;;;5049504;28;20052;-77
2022/01/29 04:23:19;;;;;;;3.38;0.80;;;10.70;99.90;;;;;;5049441;28;20060;-77
2022/01/29 04:25:47;;;;;;;1.77;0.57;;;10.70;99.90;;;;;;5048987;28;20064;-77
2022/01/29 04:28:22;;;;;;;2.75;0.65;;;10.70;99.90;;;;;;5048495;28;20071;-77
2022/01/29 04:30:52;;;;;;;3.33;0.60;;;10.70;99.90;;;;;;5049111;28;20041;-76
2022/01/29 04:33:28;;;;;;;2.33;0.60;;;10.80;99.90;;;;;;5049688;28;20064;-77
2022/01/29 04:35:58;;;;;;;1.85;0.60;;;10.70;99.90;;;;;;5066216;28;20041;-78
2022/01/29 04:38:28;;;;;;;2.33;0.40;;;10.80;99.90;;;;;;5049141;28;20057;-78
2022/01/29 04:41:03;;;;;;;2.53;0.50;;;10.70;99.90;;;;;;5050548;28;20049;-78
2022/01/29 04:43:32;;;;;;;3.58;0.65;;;10.70;99.90;;;;;;5049465;28;20052;-76
2022/01/29 04:46:06;;;;;;;2.28;0.60;;;10.70;99.90;;;;;;5048537;28;20047;-76
2022/01/29 04:48:34;;;;;;;1.85;0.57;;;10.70;99.90;;;;;;5050124;28;20125;-77
2022/01/29 04:51:02;;;;;;;2.05;0.60;;;10.70;99.90;;;;;;5048365;28;20060;-75
2022/01/29 04:53:30;;;;;;;1.02;0.45;;;10.70;99.90;;;;;;5049550;28;20060;-75
2022/01/29 04:55:58;;;;;;;;;;;10.80;99.90;;;;;;5051530;28;20048;-78
2022/01/29 04:58:26;;;;;;;3.03;0.80;;;10.80;99.90;;;;;;5050694;28;19925;-77
2022/01/29 05:00:53;;;;;;;1.77;0.60;;;10.80;99.90;;;;;;5050598;28;20607;-77
2022/01/29 05:03:27;;;;;;;3.20;0.80;;;10.80;99.90;;;;;;5051619;28;20052;-77
2022/01/29 05:05:56;;;;;;;3.38;0.70;;;10.80;99.90;;;;;;5011770;28;20057;-76
2022/01/29 05:08:25;;;;;;;3.35;0.60;;;10.80;99.90;;;;;;5029985;28;20068;-78
2022/01/29 05:10:53;;;;;;;;;;;10.80;99.90;;;;;;5031859;28;20045;-78
2022/01/29 05:13:26;;;;;;;3.50;0.90;;;10.80;99.90;;;;;;5048830;28;19920;-77
2022/01/29 05:16:07;;;;;;;2.58;0.90;;;10.90;99.90;;;;;;5048897;28;20052;-77
2022/01/29 05:26:58;;;;;;;1.63;1.00;;;10.80;99.90;;;;;;5065651;28;20064;-76
2022/01/29 05:29:30;;;;;;;2.65;0.90;;;10.80;99.90;;;;;;5049110;28;20057;-77
2022/01/29 05:32:00;;;;;;;1.98;1.00;;;10.60;99.90;;;;;;5051029;28;20071;-76
2022/01/29 05:34:28;;;;;;;3.25;1.10;;;10.80;99.90;;;;;;5051572;28;20057;-77
2022/01/29 05:36:56;;;;;;;2.95;1.02;;;10.80;99.90;;;;;;5049075;28;20037;-76
2022/01/29 05:39:24;;;;;;;1.58;0.90;;;10.80;99.90;;;;;;5064185;28;20061;-77
2022/01/29 05:41:53;;;;;;;;;;;10.80;99.90;;;;;;5048159;28;20412;-77
2022/01/29 05:44:22;;;;;;;2.92;1.08;;;11.00;99.90;;;;;;5050128;28;19925;-77
2022/01/29 05:46:51;;;;;;;2.10;0.75;;;10.80;99.90;;;;;;5048931;28;20427;-77
2022/01/29 05:49:19;;;;;;;3.03;0.82;;;10.80;99.90;;;;;;5043441;28;20053;-76
2022/01/29 05:51:48;;;;;;;2.72;0.80;;;10.80;99.90;;;;;;5032130;28;20040;-77
2022/01/29 05:54:16;;;;;;;2.72;1.10;;;10.80;99.90;;;;;;5045499;28;20053;-77
2022/01/29 05:56:44;;;;;;;3.13;1.00;;;10.80;99.90;;;;;;5043606;28;20048;-78
2022/01/29 05:59:12;;;;;;;2.70;0.88;;;10.80;99.90;;;;;;5046779;28;20060;-76
2022/01/29 06:01:39;;;;;;;3.03;1.08;;;10.80;99.90;;;;;;5048981;28;20045;-76
2022/01/29 06:04:08;;;;;;;1.70;0.80;;;10.80;99.90;;;;;;5048347;28;20060;-76
2022/01/29 06:06:35;;;;;;;3.60;0.90;;;10.80;99.90;;;;;;5048291;28;20080;-77
2022/01/29 06:09:04;;;;;;;1.13;0.52;;;10.80;99.90;;;;;;5043246;28;20102;-78
2022/01/29 06:11:33;;;;;;;3.05;0.80;;;10.80;99.90;;;;;;5028185;28;20053;-77
2022/01/29 06:14:01;;;;;;;4.40;0.90;;;10.80;99.90;;;;;;5028771;28;20045;-78
2022/01/29 06:16:30;;;;;;;3.13;0.70;;;10.70;99.90;;;;;;5025985;28;20069;-76
2022/01/29 06:18:58;;;;;;;2.03;0.70;;;10.80;99.90;;;;;;5025642;28;20072;-76
2022/01/29 06:21:25;;;;;;;2.42;0.50;;;10.70;99.90;;;;;;5043611;28;20064;-76
2022/01/29 06:23:53;;;;;;;2.10;0.60;;;10.70;99.90;;;;;;5047699;28;20076;-77
2022/01/29 06:26:21;;;;;;;1.52;0.50;;;10.70;99.90;;;;;;5047650;28;20051;-77
2022/01/29 06:28:49;;;;;;;1.65;0.55;;;10.70;99.90;;;;;;5012655;28;20052;-75
2022/01/29 06:31:18;;;;;;;2.50;0.60;;;10.60;99.90;;;;;;5047241;28;20049;-79
2022/01/29 06:33:46;;;;;;;1.17;0.40;;;10.60;99.90;;;;;;5047185;28;20053;-77
2022/01/29 06:36:14;;;;;;;1.70;0.50;;;10.60;99.90;;;;;;5013198;28;20049;-77
2022/01/29 06:38:44;;;;;;;1.02;0.50;;;10.60;99.90;;;;;;5046768;28;20056;-77
2022/01/29 06:41:12;;;;;;;1.23;0.50;;;10.60;99.90;;;;;;5046663;28;20053;-76
2022/01/29 06:43:39;;;;;;;1.75;0.32;;;10.60;99.90;;;;;;5047106;28;20052;-76
2022/01/29 06:46:07;;;;;;;0.63;0.50;;;10.50;99.90;;;;;;5047497;28;20045;-76
2022/01/29 06:48:35;;;;;;;1.17;0.43;;;10.50;99.90;;;;;;5046956;28;20393;-76
2022/01/29 06:51:03;;;;;;;1.45;0.30;;;10.50;99.90;;;;;;5046380;28;20076;-76
2022/01/29 06:53:31;;;;;;;3.30;0.40;;;10.50;99.90;;;;;;5061921;28;20413;-76
2022/01/29 06:55:58;;;;;;;0.80;0.30;;;10.50;99.90;;;;;;5046468;28;20400;-76
2022/01/29 06:58:26;;;;;;;0.77;0.40;;;10.50;99.90;;;;;;5044451;28;20045;-77
2022/01/29 07:01:15;;;;;;;2.25;0.50;;;10.50;99.90;;;;;;5044794;28;20049;-77
2022/01/29 07:03:43;;;;;;;0.70;0.30;;;10.60;99.90;;;;;;5045627;28;20119;-76
2022/01/29 07:06:11;;;;;;;2.13;0.40;;;10.60;99.90;;;;;;5039479;28;20041;-75
2022/01/29 07:08:39;;;;;;;0.88;0.30;;;10.60;99.90;;;;;;5045305;28;20061;-77
2022/01/29 07:11:07;;;;;;;0.50;0.32;;;10.60;99.90;;;;;;5032035;28;20041;-76
2022/01/29 07:13:36;;;;;;;3.00;0.40;;;10.60;99.90;;;;;;5037493;28;20045;-79
2022/01/29 07:16:04;;;;;;;0.82;0.43;;;10.50;99.90;;;;;;5041142;28;20056;-76
2022/01/29 07:18:32;;;;;;;1.80;0.52;;;10.50;99.90;;;;;;5013206;28;20410;-79
2022/01/29 07:21:01;;;;;;;1.58;0.40;;;10.50;99.90;;;;;;5030953;28;20048;-77
2022/01/29 07:23:34;;;;;;;1.33;0.40;;;10.50;99.90;;;;;;5045928;28;20175;-77
2022/01/29 07:26:02;;;;;;;2.50;0.38;;;10.50;99.90;;;;;;5043932;28;20058;-76
2022/01/29 07:28:30;;;;;;;1.45;0.40;;;10.50;99.90;;;;;;5043513;28;20064;-76
2022/01/29 07:30:58;;;;;;;1.83;0.30;;;10.50;99.90;;;;;;5043050;28;20056;-75
2022/01/29 07:33:33;;;;;;;1.10;0.25;;;10.40;99.90;;;;;;5046645;28;20515;-78
2022/01/29 07:36:01;;;;;;;1.15;0.30;;;10.50;99.90;;;;;;5046693;28;20045;-77
2022/01/29 07:38:29;;;;;;;1.05;0.40;;;10.50;99.90;;;;;;5047454;28;20064;-77
2022/01/29 07:40:58;;;;;;;1.55;0.20;;;10.50;99.90;;;;;;5045799;28;20064;-76
2022/01/29 07:43:25;;;;;;;0.15;0.10;;;10.50;99.90;;;;;;5046375;28;20485;-76
2022/01/29 07:45:53;;;;;;;0.38;0.20;;;10.50;99.90;;;;;;5046258;28;20485;-76
2022/01/29 07:48:21;;;;;;;0.32;0.22;;;10.50;99.90;;;;;;5044113;28;20060;-77
2022/01/29 07:50:49;;;;;;;0.57;0.10;;;10.40;99.90;;;;;;5048903;28;20052;-76
2022/01/29 07:53:17;;;;;;;0.98;0.15;;;10.50;99.90;;;;;;5043659;28;20033;-76
2022/01/29 07:55:45;;;;;;;0.52;0.30;;;10.40;99.90;;;;;;5030396;28;20054;-76
2022/01/29 07:58:13;;;;;;;0.88;0.20;;;10.40;99.90;;;;;;5038253;28;20053;-77
2022/01/29 08:00:41;;;;;;;0.73;0.30;;;10.40;99.90;;;;;;5041108;28;20045;-79
2022/01/29 08:03:09;;;;;;;2.42;0.10;;;10.40;99.90;;;;;;5047217;28;20496;-76
2022/01/29 08:05:37;;;;;;;;;;;10.30;99.90;;;;;;5030233;28;21370;-76
2022/01/29 08:08:05;;;;;;;0.73;0.13;;;10.30;99.90;;;;;;5047716;28;19971;-76
2022/01/29 08:10:33;;;;;;;0.65;0.20;;;10.30;99.90;;;;;;5039528;28;20823;-77
2022/01/29 08:13:00;;;;;;;2.50;0.40;;;10.20;99.90;;;;;;5044401;28;20061;-81
2022/01/29 08:15:28;;;;;;;1.65;0.17;;;10.20;99.90;;;;;;5045989;28;20053;-76
2022/01/29 08:17:56;;;;;;;0.55;0.20;;;10.20;99.90;;;;;;5027985;28;20053;-76
2022/01/29 08:20:24;;;;;;;2.05;0.28;;;10.20;99.90;;;;;;5037147;28;20053;-80
2022/01/29 08:22:52;;;;;;;1.08;0.22;;;10.20;99.90;;;;;;5044015;28;20042;-77
2022/01/29 08:25:20;;;;;;;2.30;0.30;;;10.20;99.90;;;;;;5049958;28;20061;-78
2022/01/29 08:27:47;;;;;;;1.20;0.20;;;10.30;99.90;;;;;;5049841;28;20575;-76
2022/01/29 08:30:16;;;;;;;1.70;0.28;;;10.30;99.90;;;;;;5048873;28;20064;-76
2022/01/29 08:32:43;;;;;;;1.75;0.30;;;10.40;99.90;;;;;;5050512;28;20049;-79
2022/01/29 08:35:14;;;;;;;1.13;0.20;;;10.40;99.90;;;;;;5049684;28;20057;-79
2022/01/29 08:37:42;;;;;;;1.00;0.20;;;10.40;99.90;;;;;;5048719;28;20060;-77
2022/01/29 08:40:11;;;;;;;1.52;0.20;;;10.50;99.90;;;;;;5046725;28;20053;-78
2022/01/29 08:42:39;;;;;;;3.25;0.32;;;10.50;99.90;;;;;;5048637;28;20524;-77
2022/01/29 08:45:08;;;;;;;2.53;0.30;;;10.50;99.90;;;;;;5046876;28;20053;-79
2022/01/29 08:47:42;;;;;;;1.13;0.20;;;10.50;99.90;;;;;;5047639;28;20045;-78
2022/01/29 08:50:12;;;;;;;3.78;0.40;;;10.60;99.90;;;;;;5029636;28;20057;-78
2022/01/29 08:52:40;;;;;;;1.42;0.20;;;10.60;99.90;;;;;;5034542;28;20516;-83
2022/01/29 08:55:10;;;;;;;1.20;0.28;;;10.60;99.90;;;;;;5018673;28;20504;-75
2022/01/29 08:57:42;;;;;;;2.50;0.43;;;10.50;99.90;;;;;;5024590;28;20041;-77
2022/01/29 09:00:13;;;;;;;1.75;0.40;;;10.50;99.90;;;;;;5043687;28;20116;-75
2022/01/29 09:02:42;;;;;;;1.20;0.40;;;10.50;99.90;;;;;;5046890;28;20049;-74
2022/01/29 09:05:12;;;;;;;1.85;0.15;;;10.60;99.90;;;;;;5047463;28;20056;-77
2022/01/29 09:07:40;;;;;;;1.15;0.47;;;10.60;99.90;;;;;;5044247;28;20053;-79
2022/01/29 09:10:08;;;;;;;2.25;0.45;;;10.60;99.90;;;;;;5044773;28;20045;-76
2022/01/29 09:12:36;;;;;;;0.88;0.20;;;10.60;99.90;;;;;;5042596;28;20058;-78
2022/01/29 09:15:05;;;;;;;2.72;0.50;;;10.70;99.90;;;;;;5044875;28;20076;-75
2022/01/29 09:17:35;;;;;;;1.00;0.30;;;10.70;99.90;;;;;;5045711;28;20056;-76
2022/01/29 09:20:03;;;;;;;3.70;0.50;;;10.80;99.90;;;;;;5044888;28;20049;-74
2022/01/29 09:22:30;;;;;;;2.97;0.30;;;10.80;99.90;;;;;;5046405;28;20040;-75
2022/01/29 09:24:58;;;;;;;2.55;0.38;;;10.90;99.90;;;;;;5045810;28;20052;-78
2022/01/29 09:27:26;;;;;;;4.45;0.30;;;11.00;99.90;;;;;;5047027;28;20045;-77
2022/01/29 09:29:54;;;;;;;2.90;0.32;;;11.00;99.90;;;;;;5046693;28;20493;-77
2022/01/29 09:32:22;;;;;;;2.75;0.43;;;11.10;99.90;;;;;;5045205;28;20060;-78
2022/01/29 09:34:51;;;;;;;5.25;0.40;;;11.20;99.90;;;;;;5047239;28;20052;-79
2022/01/29 09:37:18;;;;;;;2.42;0.52;;;11.30;99.90;;;;;;5046291;28;20049;-78
2022/01/29 09:39:46;;;;;;;3.70;0.43;;;11.40;99.90;;;;;;5044499;28;20264;-81
2022/01/29 09:42:16;;;;;;;1.50;0.47;;;11.40;99.90;;;;;;5044895;28;20584;-80
2022/01/29 09:44:45;;;;;;;3.63;0.43;;;11.50;99.90;;;;;;5045345;28;20386;-74
2022/01/29 09:47:16;;;;;;;2.50;0.50;;;11.50;99.90;;;;;;5032608;28;20380;-77
2022/01/29 09:49:44;;;;;;;2.72;0.50;;;11.50;99.90;;;;;;5028383;28;20049;-74
2022/01/29 09:52:12;;;;;;;;;;;11.60;99.90;;;;;;5044553;28;20880;-75
2022/01/29 09:54:39;;;;;;;0.90;0.30;;;11.60;99.90;;;;;;5047827;28;19932;-75
2022/01/29 09:57:07;;;;;;;5.03;0.70;;;11.70;99.90;;;;;;5030866;28;20061;-74
2022/01/29 09:59:35;;;;;;;2.80;0.40;;;11.80;99.90;;;;;;5047083;28;20061;-75
2022/01/29 10:02:11;;;;;;;2.08;0.47;;;11.80;99.90;;;;;;5044477;28;20053;-77
2022/01/29 10:04:56;;;;;;;1.38;0.30;;;11.90;99.90;;;;;;5046813;28;20053;-77
2022/01/29 10:07:27;;;;;;;2.25;0.40;;;11.90;99.90;;;;;;5027880;28;20489;-77
2022/01/29 10:09:56;;;;;;;3.45;0.52;;;11.90;99.90;;;;;;5047909;28;20052;-75
2022/01/29 10:12:32;;;;;;;4.03;0.55;;;11.90;99.90;;;;;;5027781;28;20390;-75
2022/01/29 10:15:05;;;;;;;3.20;0.60;;;12.00;99.90;;;;;;5045725;28;20045;-77
2022/01/29 10:17:51;;;;;;;1.75;0.40;;;12.10;99.90;;;;;;5045943;28;20057;-75
2022/01/29 10:20:22;;;;;;;2.92;0.50;;;12.10;99.90;;;;;;5046555;28;20155;-77
2022/01/29 10:22:55;;;;;;;1.38;0.38;;;12.20;99.90;;;;;;5047115;28;20053;-75
2022/01/29 10:25:30;;;;;;;2.42;0.60;;;12.30;99.90;;;;;;5063138;28;20512;-75
2022/01/29 10:28:07;;;;;;;2.40;0.50;;;12.50;99.90;;;;;;5047165;28;20079;-74
2022/01/29 10:30:48;;;;;;;2.28;0.55;;;12.80;99.90;;;;;;5015122;28;20053;-74
2022/01/29 10:33:35;;;;;;;2.63;0.60;;;13.30;99.90;;;;;;5045957;28;20056;-75
2022/01/29 10:36:06;;;;;;;2.53;0.52;;;14.00;99.90;;;;;;5045266;28;20132;-75
2022/01/29 10:38:45;;;;;;;4.10;0.68;;;14.60;99.90;;;;;;5046677;28;20052;-78
2022/01/29 10:41:27;;;;;;;1.73;0.60;;;15.30;99.90;;;;;;5044872;28;20063;-75
2022/01/29 10:46:43;;;;;;;2.25;0.63;;;16.20;99.90;;;;;;5048072;28;20053;-76
2022/01/29 10:49:24;;;;;;;2.90;0.73;;;16.40;99.90;;;;;;5047445;28;20380;-76
2022/01/29 10:52:04;;;;;;;2.20;0.85;;;16.60;99.90;;;;;;5042492;28;20056;-76
2022/01/29 10:54:35;;;;;;;3.85;0.82;;;16.70;99.90;;;;;;5027922;28;20049;-76
2022/01/29 10:57:12;;;;;;;2.78;0.70;;;16.80;99.90;;;;;;5040789;28;20056;-76
2022/01/29 10:59:49;;;;;;;2.92;0.55;;;17.00;99.90;;;;;;5047386;28;20049;-77
2022/01/29 11:02:19;;;;;;;3.08;0.90;;;17.20;99.90;;;;;;5047142;28;20057;-77
2022/01/29 11:04:48;;;;;;;4.47;0.85;;;17.50;99.90;;;;;;5045988;28;20067;-77
2022/01/29 11:07:18;;;;;;;5.82;0.75;;;17.70;99.90;;;;;;5029046;28;20049;-78
2022/01/29 11:09:52;;;;;;;3.17;0.82;;;17.90;99.90;;;;;;5046874;28;20057;-74
2022/01/29 11:12:25;;;;;;;4.75;0.93;;;18.00;99.90;;;;;;5045835;28;20060;-78
2022/01/29 11:14:55;;;;;;;4.43;0.90;;;17.90;99.90;;;;;;5045891;28;20060;-77
2022/01/29 11:17:23;;;;;;;3.60;0.70;;;17.80;99.90;;;;;;5045132;28;20572;-75
2022/01/29 11:19:51;;;;;;;3.72;0.82;;;18.00;99.90;;;;;;5046085;28;20041;-79
2022/01/29 11:22:21;;;;;;;;;;;18.10;99.90;;;;;;5045097;28;20041;-77
2022/01/29 11:24:58;;;;;;;2.72;0.70;;;18.20;99.90;;;;;;5050415;28;19999;-78
2022/01/29 11:27:28;;;;;;;6.17;0.80;;;18.20;99.90;;;;;;5033448;28;20543;-76
2022/01/29 11:30:00;;;;;;;4.50;0.82;;;17.90;99.90;;;;;;5049064;28;20045;-78
2022/01/29 11:32:28;;;;;;;2.33;0.80;;;17.80;99.90;;;;;;5051605;28;20052;-75
2022/01/29 11:35:05;;;;;;;3.30;0.98;;;18.00;99.90;;;;;;5049129;28;20033;-78
2022/01/29 11:37:44;;;;;;;5.03;0.88;;;18.00;99.90;;;;;;5050998;28;20059;-77
2022/01/29 11:40:25;;;;;;;5.13;0.63;;;18.10;99.90;;;;;;5051642;28;20048;-77
2022/01/29 11:42:58;;;;;;;2.58;0.77;;;18.20;99.90;;;;;;5049313;28;20061;-78
2022/01/29 11:45:49;;;;;;;2.78;0.85;;;18.40;99.90;;;;;;5043312;28;20037;-77
2022/01/29 11:48:26;;;;;;;3.85;0.80;;;18.40;99.90;;;;;;5047895;28;20076;-75
2022/01/29 11:50:59;;;;;;;2.63;0.68;;;18.50;99.90;;;;;;5047229;28;20076;-76
2022/01/29 11:53:48;;;;;;;3.47;0.70;;;18.80;99.90;;;;;;5031695;28;20053;-75
2022/01/29 11:56:29;;;;;;;5.20;0.77;;;19.10;99.90;;;;;;5029141;28;20501;-79
2022/01/29 11:59:19;;;;;;;3.85;0.80;;;19.30;99.80;;;;;;5029947;28;20060;-78
2022/01/29 12:01:49;;;;;;;2.92;0.93;;;19.60;99.20;;;;;;5045835;28;20057;-78
2022/01/29 12:04:21;;;;;;;4.95;1.10;;;19.70;99.70;;;;;;5050701;28;20878;-82
2022/01/29 12:07:26;;;;;;;3.92;1.17;;;19.60;98.50;;;;;;5051262;28;20371;-78
2022/01/29 12:10:10;;;;;;;2.78;0.80;;;19.60;98.10;;;;;;5050598;28;20053;-76
2022/01/29 12:12:40;;;;;;;2.75;0.60;;;19.50;98.20;;;;;;5039038;28;20041;-79
2022/01/29 12:15:11;;;;;;;3.13;0.60;;;19.30;98.10;;;;;;5031641;28;20488;-77
2022/01/29 12:17:46;;;;;;;2.92;0.98;;;19.20;98.40;;;;;;5049653;28;20068;-76
2022/01/29 12:20:16;;;;;;;2.72;0.88;;;19.20;98.80;;;;;;5048664;28;20045;-82
2022/01/29 12:22:45;;;;;;;4.45;0.90;;;19.30;98.50;;;;;;5037441;28;20049;-80
2022/01/29 12:25:15;;;;;;;3.42;0.80;;;19.20;98.00;;;;;;5029543;28;20394;-78
2022/01/29 12:27:56;;;;;;;4.00;0.80;;;19.20;98.20;;;;;;5045870;28;20053;-75
2022/01/29 12:30:40;;;;;;;3.42;0.80;;;18.90;98.60;;;;;;5029645;28;20057;-79
2022/01/29 12:33:14;;;;;;;5.55;0.60;;;18.70;98.50;;;;;;5029457;28;20189;-78
2022/01/29 12:35:46;;;;;;;3.80;0.82;;;18.50;98.80;;;;;;5044791;28;20078;-76
2022/01/29 12:38:27;;;;;;;3.50;0.77;;;18.10;99.40;;;;;;5029763;28;20045;-75
2022/01/29 12:41:02;;;;;;;3.03;0.63;;;17.70;99.80;;;;;;5029813;28;20061;-74
2022/01/29 12:43:50;;;;;;;2.10;0.60;;;17.50;99.90;;;;;;5011934;28;20052;-78
2022/01/29 12:46:21;;;;;;;2.97;0.88;;;17.20;99.90;;;;;;5040610;28;20516;-77
2022/01/29 12:49:06;;;;;;;4.53;0.80;;;17.00;99.90;;;;;;5044492;28;20060;-74
2022/01/29 12:51:36;;;;;;;4.53;0.90;;;17.40;99.90;;;;;;5048455;28;20060;-76
2022/01/29 12:54:07;;;;;;;2.88;0.90;;;17.70;99.90;;;;;;5037912;28;20049;-79
2022/01/29 12:56:37;;;;;;;4.88;0.80;;;18.10;99.90;;;;;;5011157;28;20045;-80
2022/01/29 12:59:08;;;;;;;3.85;1.00;;;18.00;99.90;;;;;;5029435;28;20048;-76
2022/01/29 13:01:38;;;;;;;3.20;0.90;;;18.00;99.90;;;;;;5046356;28;20033;-77
2022/01/29 13:04:11;;;;;;;5.00;1.00;;;18.00;99.90;;;;;;5047020;28;20056;-76
2022/01/29 13:06:40;;;;;;;3.67;0.98;;;18.10;99.90;;;;;;5040271;28;20050;-77
2022/01/29 13:09:18;;;;;;;4.95;1.10;;;17.90;99.90;;;;;;5044398;28;20065;-78
2022/01/29 13:11:48;;;;;;;4.43;0.90;;;17.60;99.90;;;;;;5047090;28;20045;-78
2022/01/29 13:14:19;;;;;;;2.72;0.75;;;17.50;99.90;;;;;;5046103;28;20052;-78
2022/01/29 13:16:51;;;;;;;1.77;0.75;;;17.40;99.90;;;;;;5026954;28;20497;-79
2022/01/29 13:19:29;;;;;;;6.28;1.30;;;17.20;99.90;;;;;;5042799;28;20056;-77